sensor_id;sensor_type;location;lat;lon;timestamp;pressure;altitude;pressure_sealevel;temperature;humidity
21547;BME280;41275;51.912;4.388;2024-03-17T00:03:28;102267.75;;;14.22;43.70
21547;BME280;41275;51.912;4.388;2024-03-17T00:08:49;102263.66;;;14.27;43.77
21547;BME280;41275;51.912;4.388;2024-03-17T00:14:11;102258.34;;;14.27;43.37
21547;BME280;41275;51.912;4.388;2024-03-17T00:19:32;102258.16;;;14.21;43.02
21547;BME280;41275;51.912;4.388;2024-03-17T00:24:53;102260.50;;;14.11;43.40
21547;BME280;41275;51.912;4.388;2024-03-17T00:30:15;102257.63;;;14.06;43.90
21547;BME280;41275;51.912;4.388;2024-03-17T00:35:36;102247.25;;;13.98;43.96
21547;BME280;41275;51.912;4.388;2024-03-17T00:40:58;102246.69;;;13.89;44.09
21547;BME280;41275;51.912;4.388;2024-03-17T00:46:22;102239.19;;;13.80;44.37
21547;BME280;41275;51.912;4.388;2024-03-17T00:51:43;102234.06;;;13.78;44.53
21547;BME280;41275;51.912;4.388;2024-03-17T00:57:05;102237.53;;;13.79;44.48
21547;BME280;41275;51.912;4.388;2024-03-17T01:02:26;102232.19;;;13.79;44.38
21547;BME280;41275;51.912;4.388;2024-03-17T01:07:47;102223.41;;;13.78;44.74
21547;BME280;41275;51.912;4.388;2024-03-17T01:13:09;102223.81;;;13.75;45.16
21547;BME280;41275;51.912;4.388;2024-03-17T01:18:31;102209.53;;;13.69;44.92
21547;BME280;41275;51.912;4.388;2024-03-17T01:23:53;102199.97;;;13.62;45.20
21547;BME280;41275;51.912;4.388;2024-03-17T01:29:14;102206.56;;;13.53;45.38
21547;BME280;41275;51.912;4.388;2024-03-17T01:34:35;102204.72;;;13.53;45.58
21547;BME280;41275;51.912;4.388;2024-03-17T01:39:57;102195.47;;;13.56;45.70
21547;BME280;41275;51.912;4.388;2024-03-17T01:45:33;102199.16;;;13.61;45.63
21547;BME280;41275;51.912;4.388;2024-03-17T01:50:56;102184.41;;;13.65;45.87
21547;BME280;41275;51.912;4.388;2024-03-17T01:56:18;102180.75;;;13.60;46.12
21547;BME280;41275;51.912;4.388;2024-03-17T02:01:40;102169.75;;;13.49;46.34
21547;BME280;41275;51.912;4.388;2024-03-17T02:07:02;102160.75;;;13.44;46.24
21547;BME280;41275;51.912;4.388;2024-03-17T02:12:24;102152.78;;;13.44;46.64
21547;BME280;41275;51.912;4.388;2024-03-17T02:17:45;102165.88;;;13.52;46.73
21547;BME280;41275;51.912;4.388;2024-03-17T02:23:06;102160.22;;;13.67;46.31
21547;BME280;41275;51.912;4.388;2024-03-17T02:28:28;102149.84;;;13.90;46.05
21547;BME280;41275;51.912;4.388;2024-03-17T02:33:49;102145.25;;;14.04;45.79
21547;BME280;41275;51.912;4.388;2024-03-17T02:39:11;102131.72;;;14.06;46.16
21547;BME280;41275;51.912;4.388;2024-03-17T02:44:50;102132.09;;;14.09;45.80
21547;BME280;41275;51.912;4.388;2024-03-17T02:50:13;102129.31;;;14.22;45.45
21547;BME280;41275;51.912;4.388;2024-03-17T02:55:34;102130.06;;;14.30;45.48
21547;BME280;41275;51.912;4.388;2024-03-17T03:00:55;102133.00;;;14.46;45.07
21547;BME280;41275;51.912;4.388;2024-03-17T03:06:16;102118.63;;;14.54;44.90
21547;BME280;41275;51.912;4.388;2024-03-17T03:11:40;102116.28;;;14.58;45.04
21547;BME280;41275;51.912;4.388;2024-03-17T03:17:02;102100.78;;;14.55;44.66
21547;BME280;41275;51.912;4.388;2024-03-17T03:22:23;102081.78;;;14.44;44.64
21547;BME280;41275;51.912;4.388;2024-03-17T03:27:44;102087.41;;;14.36;45.12
21547;BME280;41275;51.912;4.388;2024-03-17T03:33:06;102082.47;;;14.40;45.18
21547;BME280;41275;51.912;4.388;2024-03-17T03:38:27;102080.16;;;14.43;44.79
21547;BME280;41275;51.912;4.388;2024-03-17T03:43:48;102067.06;;;14.42;44.87
21547;BME280;41275;51.912;4.388;2024-03-17T03:49:10;102055.00;;;14.39;45.18
21547;BME280;41275;51.912;4.388;2024-03-17T03:54:31;102047.53;;;14.30;44.90
21547;BME280;41275;51.912;4.388;2024-03-17T03:59:52;102039.69;;;14.16;45.35
21547;BME280;41275;51.912;4.388;2024-03-17T04:05:14;102048.81;;;14.02;45.28
21547;BME280;41275;51.912;4.388;2024-03-17T04:10:35;102055.63;;;13.98;45.46
21547;BME280;41275;51.912;4.388;2024-03-17T04:15:57;102052.81;;;13.93;45.84
21547;BME280;41275;51.912;4.388;2024-03-17T04:21:19;102049.19;;;13.87;45.71
21547;BME280;41275;51.912;4.388;2024-03-17T04:26:42;102043.09;;;13.80;45.86
21547;BME280;41275;51.912;4.388;2024-03-17T04:32:04;102032.72;;;13.72;45.96
21547;BME280;41275;51.912;4.388;2024-03-17T04:37:26;102027.03;;;13.68;46.63
21547;BME280;41275;51.912;4.388;2024-03-17T04:42:47;102032.53;;;13.67;46.77
21547;BME280;41275;51.912;4.388;2024-03-17T04:48:08;102036.47;;;13.64;46.61
21547;BME280;41275;51.912;4.388;2024-03-17T04:53:30;102024.78;;;13.65;47.02
21547;BME280;41275;51.912;4.388;2024-03-17T04:58:51;102023.19;;;13.64;46.94
21547;BME280;41275;51.912;4.388;2024-03-17T05:04:12;102024.56;;;13.67;46.97
21547;BME280;41275;51.912;4.388;2024-03-17T05:09:33;102016.19;;;13.63;47.33
21547;BME280;41275;51.912;4.388;2024-03-17T05:14:54;102019.91;;;13.62;47.17
21547;BME280;41275;51.912;4.388;2024-03-17T05:20:16;102022.94;;;13.66;47.65
21547;BME280;41275;51.912;4.388;2024-03-17T05:25:37;102022.66;;;13.74;47.59
21547;BME280;41275;51.912;4.388;2024-03-17T05:30:58;102018.09;;;13.81;47.53
21547;BME280;41275;51.912;4.388;2024-03-17T05:36:20;102012.94;;;13.86;47.21
21547;BME280;41275;51.912;4.388;2024-03-17T05:41:41;102010.50;;;13.85;47.61
21547;BME280;41275;51.912;4.388;2024-03-17T05:47:04;102006.38;;;13.89;47.36
21547;BME280;41275;51.912;4.388;2024-03-17T05:52:29;102006.16;;;13.90;47.19
21547;BME280;41275;51.912;4.388;2024-03-17T05:57:50;102001.63;;;13.91;47.38
21547;BME280;41275;51.912;4.388;2024-03-17T06:03:11;102003.06;;;13.93;47.66
21547;BME280;41275;51.912;4.388;2024-03-17T06:08:32;102007.88;;;14.03;47.80
21547;BME280;41275;51.912;4.388;2024-03-17T06:13:54;102020.63;;;14.19;47.53
21547;BME280;41275;51.912;4.388;2024-03-17T06:19:15;101999.97;;;14.33;47.23
21547;BME280;41275;51.912;4.388;2024-03-17T06:24:36;102006.84;;;14.41;47.08
21547;BME280;41275;51.912;4.388;2024-03-17T06:29:58;102007.38;;;14.49;46.55
21547;BME280;41275;51.912;4.388;2024-03-17T06:35:21;102001.91;;;14.63;46.80
21547;BME280;41275;51.912;4.388;2024-03-17T06:40:51;102017.59;;;14.71;46.67
21547;BME280;41275;51.912;4.388;2024-03-17T06:46:12;102016.81;;;14.82;46.69
21547;BME280;41275;51.912;4.388;2024-03-17T06:51:33;102019.97;;;14.91;46.60
21547;BME280;41275;51.912;4.388;2024-03-17T06:56:55;102024.41;;;14.97;46.25
21547;BME280;41275;51.912;4.388;2024-03-17T07:02:16;102012.03;;;15.03;46.50
21547;BME280;41275;51.912;4.388;2024-03-17T07:07:39;102015.22;;;15.23;46.11
21547;BME280;41275;51.912;4.388;2024-03-17T07:13:01;102020.13;;;15.38;46.11
21547;BME280;41275;51.912;4.388;2024-03-17T07:18:22;102021.88;;;15.44;45.83
21547;BME280;41275;51.912;4.388;2024-03-17T07:23:43;102038.25;;;15.59;45.65
21547;BME280;41275;51.912;4.388;2024-03-17T07:29:04;102024.03;;;15.65;45.93
21547;BME280;41275;51.912;4.388;2024-03-17T07:34:26;102030.84;;;15.61;46.01
21547;BME280;41275;51.912;4.388;2024-03-17T07:39:47;102033.50;;;15.61;45.57
21547;BME280;41275;51.912;4.388;2024-03-17T07:45:10;102026.59;;;15.72;46.11
21547;BME280;41275;51.912;4.388;2024-03-17T07:50:32;102041.56;;;15.85;45.77
21547;BME280;41275;51.912;4.388;2024-03-17T07:56:00;102040.50;;;15.74;45.63
21547;BME280;41275;51.912;4.388;2024-03-17T08:01:21;102033.56;;;15.73;45.55
21547;BME280;41275;51.912;4.388;2024-03-17T08:06:43;102030.53;;;15.81;45.96
21547;BME280;41275;51.912;4.388;2024-03-17T08:12:05;102028.91;;;15.92;45.74
21547;BME280;41275;51.912;4.388;2024-03-17T08:17:26;102022.41;;;16.00;45.74
21547;BME280;41275;51.912;4.388;2024-03-17T08:22:48;102028.06;;;16.03;45.52
21547;BME280;41275;51.912;4.388;2024-03-17T08:28:09;102024.13;;;16.17;45.60
21547;BME280;41275;51.912;4.388;2024-03-17T08:33:31;102016.09;;;16.29;45.67
21547;BME280;41275;51.912;4.388;2024-03-17T08:38:53;102021.38;;;16.53;45.51
21547;BME280;41275;51.912;4.388;2024-03-17T08:44:16;102017.16;;;16.80;45.40
21547;BME280;41275;51.912;4.388;2024-03-17T08:49:37;102014.94;;;17.06;44.78
21547;BME280;41275;51.912;4.388;2024-03-17T08:54:58;102013.56;;;17.37;44.24
21547;BME280;41275;51.912;4.388;2024-03-17T09:00:19;102009.06;;;17.54;44.13
21547;BME280;41275;51.912;4.388;2024-03-17T09:05:42;101997.03;;;17.74;43.93
21547;BME280;41275;51.912;4.388;2024-03-17T09:11:11;101993.59;;;18.12;43.33
21547;BME280;41275;51.912;4.388;2024-03-17T09:16:33;101995.28;;;18.40;42.86
21547;BME280;41275;51.912;4.388;2024-03-17T09:21:54;101980.34;;;18.49;42.63
21547;BME280;41275;51.912;4.388;2024-03-17T09:27:16;101988.47;;;18.76;42.40
21547;BME280;41275;51.912;4.388;2024-03-17T09:32:40;101977.16;;;19.01;41.98
21547;BME280;41275;51.912;4.388;2024-03-17T09:38:02;101981.34;;;19.19;41.98
21547;BME280;41275;51.912;4.388;2024-03-17T09:43:25;101978.50;;;19.31;41.72
21547;BME280;41275;51.912;4.388;2024-03-17T09:48:47;101972.63;;;19.34;41.46
21547;BME280;41275;51.912;4.388;2024-03-17T09:54:17;101977.81;;;19.46;41.42
21547;BME280;41275;51.912;4.388;2024-03-17T09:59:39;101970.59;;;19.56;41.15
21547;BME280;41275;51.912;4.388;2024-03-17T10:05:00;101970.50;;;19.73;41.06
21547;BME280;41275;51.912;4.388;2024-03-17T10:10:21;101961.81;;;20.19;40.98
21547;BME280;41275;51.912;4.388;2024-03-17T10:15:49;101966.19;;;20.30;40.35
21547;BME280;41275;51.912;4.388;2024-03-17T10:21:25;101966.72;;;20.32;40.38
21547;BME280;41275;51.912;4.388;2024-03-17T10:26:55;101953.75;;;20.19;40.38
21547;BME280;41275;51.912;4.388;2024-03-17T10:32:17;101961.31;;;20.22;40.73
21547;BME280;41275;51.912;4.388;2024-03-17T10:37:53;101958.56;;;20.06;40.72
21547;BME280;41275;51.912;4.388;2024-03-17T10:43:14;101955.50;;;19.88;41.12
21547;BME280;41275;51.912;4.388;2024-03-17T10:48:37;101949.34;;;19.87;41.67
21547;BME280;41275;51.912;4.388;2024-03-17T10:53:59;101944.22;;;19.85;41.75
21547;BME280;41275;51.912;4.388;2024-03-17T10:59:28;101946.41;;;19.89;41.87
21547;BME280;41275;51.912;4.388;2024-03-17T11:04:55;101940.19;;;19.83;42.07
21547;BME280;41275;51.912;4.388;2024-03-17T11:10:30;101932.94;;;19.83;42.33
21547;BME280;41275;51.912;4.388;2024-03-17T11:15:53;101929.00;;;20.01;42.59
21547;BME280;41275;51.912;4.388;2024-03-17T11:21:21;101918.41;;;19.84;42.54
21547;BME280;41275;51.912;4.388;2024-03-17T11:26:42;101925.63;;;19.74;43.04
21547;BME280;41275;51.912;4.388;2024-03-17T11:32:24;101922.47;;;19.82;43.45
21547;BME280;41275;51.912;4.388;2024-03-17T11:37:45;101914.91;;;19.79;43.63
21547;BME280;41275;51.912;4.388;2024-03-17T11:43:16;101919.22;;;19.80;43.66
21547;BME280;41275;51.912;4.388;2024-03-17T11:48:38;101899.41;;;19.96;43.76
21547;BME280;41275;51.912;4.388;2024-03-17T11:54:00;101897.34;;;20.24;43.71
21547;BME280;41275;51.912;4.388;2024-03-17T11:59:22;101885.34;;;20.72;43.55
21547;BME280;41275;51.912;4.388;2024-03-17T12:04:43;101882.41;;;20.99;43.49
21547;BME280;41275;51.912;4.388;2024-03-17T12:10:10;101870.00;;;21.19;43.35
21547;BME280;41275;51.912;4.388;2024-03-17T12:15:31;101871.59;;;21.09;43.18
21547;BME280;41275;51.912;4.388;2024-03-17T12:20:54;101857.06;;;21.16;43.52
21547;BME280;41275;51.912;4.388;2024-03-17T12:26:16;101856.75;;;21.43;43.84
21547;BME280;41275;51.912;4.388;2024-03-17T12:31:37;101849.69;;;21.62;43.98
21547;BME280;41275;51.912;4.388;2024-03-17T12:36:58;101847.63;;;21.98;44.04
21547;BME280;41275;51.912;4.388;2024-03-17T12:42:24;101842.94;;;22.19;43.83
21547;BME280;41275;51.912;4.388;2024-03-17T12:47:47;101840.53;;;22.18;43.63
21547;BME280;41275;51.912;4.388;2024-03-17T12:53:15;101830.84;;;22.12;43.38
21547;BME280;41275;51.912;4.388;2024-03-17T12:58:38;101826.03;;;22.03;43.76
21547;BME280;41275;51.912;4.388;2024-03-17T13:04:18;101824.06;;;22.24;43.53
21547;BME280;41275;51.912;4.388;2024-03-17T13:09:39;101814.78;;;22.99;43.03
21547;BME280;41275;51.912;4.388;2024-03-17T13:15:01;101808.13;;;22.86;42.41
21547;BME280;41275;51.912;4.388;2024-03-17T13:20:22;101789.81;;;22.54;42.93
21547;BME280;41275;51.912;4.388;2024-03-17T13:25:44;101799.50;;;22.60;42.37
21547;BME280;41275;51.912;4.388;2024-03-17T13:31:08;101786.66;;;23.05;41.66
21547;BME280;41275;51.912;4.388;2024-03-17T13:36:30;101785.59;;;23.49;40.38
21547;BME280;41275;51.912;4.388;2024-03-17T13:41:52;101770.72;;;23.51;40.37
21547;BME280;41275;51.912;4.388;2024-03-17T13:47:17;101774.25;;;23.28;40.26
21547;BME280;41275;51.912;4.388;2024-03-17T13:52:40;101762.25;;;22.91;41.01
21547;BME280;41275;51.912;4.388;2024-03-17T13:58:01;101758.63;;;22.43;42.04
21547;BME280;41275;51.912;4.388;2024-03-17T14:03:22;101740.53;;;22.14;42.48
21547;BME280;41275;51.912;4.388;2024-03-17T14:08:43;101745.88;;;21.80;42.55
21547;BME280;41275;51.912;4.388;2024-03-17T14:14:05;101738.50;;;21.51;43.01
21547;BME280;41275;51.912;4.388;2024-03-17T14:19:26;101737.38;;;21.63;43.29
21547;BME280;41275;51.912;4.388;2024-03-17T14:24:48;101727.91;;;21.70;43.05
21547;BME280;41275;51.912;4.388;2024-03-17T14:30:15;101728.31;;;21.88;42.72
21547;BME280;41275;51.912;4.388;2024-03-17T14:35:36;101721.16;;;21.68;43.35
21547;BME280;41275;51.912;4.388;2024-03-17T14:40:59;101715.41;;;21.40;43.76
21547;BME280;41275;51.912;4.388;2024-03-17T14:46:21;101716.53;;;21.24;44.04
21547;BME280;41275;51.912;4.388;2024-03-17T14:51:42;101712.84;;;21.04;44.52
21547;BME280;41275;51.912;4.388;2024-03-17T14:57:03;101715.06;;;20.82;45.08
21547;BME280;41275;51.912;4.388;2024-03-17T15:02:25;101706.22;;;20.71;45.56
21547;BME280;41275;51.912;4.388;2024-03-17T15:07:47;101709.69;;;20.67;45.64
21547;BME280;41275;51.912;4.388;2024-03-17T15:13:09;101697.38;;;20.61;45.98
21547;BME280;41275;51.912;4.388;2024-03-17T15:18:31;101691.94;;;20.71;46.13
21547;BME280;41275;51.912;4.388;2024-03-17T15:23:54;101692.50;;;20.68;46.38
21547;BME280;41275;51.912;4.388;2024-03-17T15:29:15;101686.59;;;20.66;46.78
21547;BME280;41275;51.912;4.388;2024-03-17T15:34:37;101684.47;;;20.57;47.04
21547;BME280;41275;51.912;4.388;2024-03-17T15:39:58;101684.72;;;20.51;47.50
21547;BME280;41275;51.912;4.388;2024-03-17T15:45:20;101674.78;;;20.51;47.62
21547;BME280;41275;51.912;4.388;2024-03-17T15:50:41;101671.28;;;20.46;47.96
21547;BME280;41275;51.912;4.388;2024-03-17T15:56:04;101665.91;;;20.41;48.04
21547;BME280;41275;51.912;4.388;2024-03-17T16:01:26;101674.78;;;20.31;48.05
21547;BME280;41275;51.912;4.388;2024-03-17T16:06:48;101661.34;;;20.16;48.38
21547;BME280;41275;51.912;4.388;2024-03-17T16:12:09;101663.25;;;20.10;48.70
21547;BME280;41275;51.912;4.388;2024-03-17T16:17:31;101665.97;;;20.05;48.84
21547;BME280;41275;51.912;4.388;2024-03-17T16:22:52;101656.00;;;19.95;48.91
21547;BME280;41275;51.912;4.388;2024-03-17T16:28:18;101647.94;;;19.75;49.11
21547;BME280;41275;51.912;4.388;2024-03-17T16:33:41;101640.34;;;19.56;49.59
21547;BME280;41275;51.912;4.388;2024-03-17T16:39:03;101639.84;;;19.49;49.98
21547;BME280;41275;51.912;4.388;2024-03-17T16:44:45;101632.84;;;19.48;50.15
21547;BME280;41275;51.912;4.388;2024-03-17T16:50:10;101628.03;;;19.50;50.28
21547;BME280;41275;51.912;4.388;2024-03-17T16:55:32;101631.75;;;19.44;50.47
21547;BME280;41275;51.912;4.388;2024-03-17T17:00:54;101628.00;;;19.40;50.66
21547;BME280;41275;51.912;4.388;2024-03-17T17:06:15;101618.06;;;19.35;50.72
21547;BME280;41275;51.912;4.388;2024-03-17T17:11:36;101615.66;;;19.34;50.90
21547;BME280;41275;51.912;4.388;2024-03-17T17:16:57;101619.66;;;19.31;51.22
21547;BME280;41275;51.912;4.388;2024-03-17T17:22:20;101619.91;;;19.25;50.95
21547;BME280;41275;51.912;4.388;2024-03-17T17:27:42;101610.81;;;19.26;51.02
21547;BME280;41275;51.912;4.388;2024-03-17T17:33:04;101604.88;;;19.19;51.24
21547;BME280;41275;51.912;4.388;2024-03-17T17:38:26;101603.25;;;19.18;51.47
21547;BME280;41275;51.912;4.388;2024-03-17T17:43:50;101601.13;;;19.15;51.21
21547;BME280;41275;51.912;4.388;2024-03-17T17:49:11;101590.59;;;18.98;51.27
21547;BME280;41275;51.912;4.388;2024-03-17T17:54:33;101590.06;;;18.91;51.61
21547;BME280;41275;51.912;4.388;2024-03-17T17:59:54;101587.09;;;18.92;51.72
21547;BME280;41275;51.912;4.388;2024-03-17T18:05:16;101586.53;;;18.90;51.92
21547;BME280;41275;51.912;4.388;2024-03-17T18:10:38;101590.00;;;18.85;52.00
21547;BME280;41275;51.912;4.388;2024-03-17T18:16:03;101589.44;;;18.78;52.12
21547;BME280;41275;51.912;4.388;2024-03-17T18:21:25;101597.69;;;18.67;52.25
21547;BME280;41275;51.912;4.388;2024-03-17T18:26:46;101598.72;;;18.55;52.74
21547;BME280;41275;51.912;4.388;2024-03-17T18:32:07;101595.19;;;18.45;52.96
21547;BME280;41275;51.912;4.388;2024-03-17T18:37:29;101592.13;;;18.31;53.08
21547;BME280;41275;51.912;4.388;2024-03-17T18:42:50;101592.91;;;18.26;53.38
21547;BME280;41275;51.912;4.388;2024-03-17T18:48:11;101596.38;;;18.22;53.96
21547;BME280;41275;51.912;4.388;2024-03-17T18:53:32;101592.09;;;18.21;53.88
21547;BME280;41275;51.912;4.388;2024-03-17T18:58:54;101589.44;;;18.26;53.97
21547;BME280;41275;51.912;4.388;2024-03-17T19:04:15;101584.59;;;18.23;54.34
21547;BME280;41275;51.912;4.388;2024-03-17T19:09:36;101589.16;;;18.22;54.71
21547;BME280;41275;51.912;4.388;2024-03-17T19:15:01;101587.03;;;18.29;54.58
21547;BME280;41275;51.912;4.388;2024-03-17T19:20:23;101573.91;;;18.28;54.69
21547;BME280;41275;51.912;4.388;2024-03-17T19:25:44;101580.59;;;18.25;54.58
21547;BME280;41275;51.912;4.388;2024-03-17T19:31:06;101581.91;;;18.23;54.73
21547;BME280;41275;51.912;4.388;2024-03-17T19:36:31;101574.13;;;18.21;54.85
21547;BME280;41275;51.912;4.388;2024-03-17T19:41:54;101563.94;;;18.18;55.07
21547;BME280;41275;51.912;4.388;2024-03-17T19:47:15;101560.19;;;18.19;55.16
21547;BME280;41275;51.912;4.388;2024-03-17T19:52:39;101565.81;;;18.18;55.42
21547;BME280;41275;51.912;4.388;2024-03-17T19:58:00;101576.53;;;18.18;55.25
21547;BME280;41275;51.912;4.388;2024-03-17T20:03:21;101573.28;;;18.15;55.30
21547;BME280;41275;51.912;4.388;2024-03-17T20:08:43;101568.19;;;18.09;55.85
21547;BME280;41275;51.912;4.388;2024-03-17T20:14:04;101573.25;;;18.10;55.80
21547;BME280;41275;51.912;4.388;2024-03-17T20:19:25;101564.22;;;18.17;56.05
21547;BME280;41275;51.912;4.388;2024-03-17T20:24:46;101570.66;;;18.21;55.98
21547;BME280;41275;51.912;4.388;2024-03-17T20:30:08;101574.94;;;18.22;55.89
21547;BME280;41275;51.912;4.388;2024-03-17T20:35:29;101566.41;;;18.30;55.98
21547;BME280;41275;51.912;4.388;2024-03-17T20:40:50;101566.47;;;18.40;55.97
21547;BME280;41275;51.912;4.388;2024-03-17T20:46:12;101555.75;;;18.40;56.10
21547;BME280;41275;51.912;4.388;2024-03-17T20:51:33;101561.63;;;18.37;55.97
21547;BME280;41275;51.912;4.388;2024-03-17T20:56:55;101563.81;;;18.40;55.92
21547;BME280;41275;51.912;4.388;2024-03-17T21:02:16;101570.50;;;18.43;56.18
21547;BME280;41275;51.912;4.388;2024-03-17T21:07:37;101556.88;;;18.54;56.42
21547;BME280;41275;51.912;4.388;2024-03-17T21:12:58;101553.66;;;18.52;56.17
21547;BME280;41275;51.912;4.388;2024-03-17T21:18:21;101549.91;;;18.48;56.29
21547;BME280;41275;51.912;4.388;2024-03-17T21:23:44;101548.31;;;18.57;56.23
21547;BME280;41275;51.912;4.388;2024-03-17T21:29:05;101554.25;;;18.59;56.18
21547;BME280;41275;51.912;4.388;2024-03-17T21:34:28;101553.16;;;18.60;56.30
21547;BME280;41275;51.912;4.388;2024-03-17T21:39:50;101545.69;;;18.68;56.51
21547;BME280;41275;51.912;4.388;2024-03-17T21:45:11;101541.38;;;18.61;56.07
21547;BME280;41275;51.912;4.388;2024-03-17T21:50:35;101543.53;;;18.59;56.18
21547;BME280;41275;51.912;4.388;2024-03-17T21:55:58;101537.56;;;18.47;56.33
21547;BME280;41275;51.912;4.388;2024-03-17T22:01:19;101537.56;;;18.47;56.45
21547;BME280;41275;51.912;4.388;2024-03-17T22:06:41;101531.66;;;18.45;56.67
21547;BME280;41275;51.912;4.388;2024-03-17T22:12:02;101529.56;;;18.52;56.58
21547;BME280;41275;51.912;4.388;2024-03-17T22:17:23;101529.56;;;18.52;56.46
21547;BME280;41275;51.912;4.388;2024-03-17T22:22:46;101526.22;;;18.30;56.92
21547;BME280;41275;51.912;4.388;2024-03-17T22:28:10;101521.06;;;18.18;56.89
21547;BME280;41275;51.912;4.388;2024-03-17T22:33:35;101517.53;;;18.07;57.08
21547;BME280;41275;51.912;4.388;2024-03-17T22:38:56;101502.72;;;17.95;57.33
21547;BME280;41275;51.912;4.388;2024-03-17T22:44:17;101518.47;;;17.86;57.54
21547;BME280;41275;51.912;4.388;2024-03-17T22:49:39;101512.31;;;17.85;57.37
21547;BME280;41275;51.912;4.388;2024-03-17T22:55:00;101506.94;;;17.80;57.23
21547;BME280;41275;51.912;4.388;2024-03-17T23:00:21;101509.13;;;17.88;57.22
21547;BME280;41275;51.912;4.388;2024-03-17T23:05:52;101511.06;;;18.03;57.29
21547;BME280;41275;51.912;4.388;2024-03-17T23:11:15;101521.28;;;18.11;56.73
21547;BME280;41275;51.912;4.388;2024-03-17T23:16:36;101515.34;;;17.99;56.50
21547;BME280;41275;51.912;4.388;2024-03-17T23:21:57;101511.53;;;17.85;56.76
21547;BME280;41275;51.912;4.388;2024-03-17T23:27:19;101509.06;;;17.78;56.80
21547;BME280;41275;51.912;4.388;2024-03-17T23:32:40;101509.78;;;17.69;57.22
21547;BME280;41275;51.912;4.388;2024-03-17T23:38:02;101517.03;;;17.73;57.07
21547;BME280;41275;51.912;4.388;2024-03-17T23:43:24;101511.75;;;17.83;57.07
21547;BME280;41275;51.912;4.388;2024-03-17T23:48:45;101505.63;;;17.88;57.09
21547;BME280;41275;51.912;4.388;2024-03-17T23:54:06;101512.81;;;17.77;56.64
21547;BME280;41275;51.912;4.388;2024-03-17T23:59:28;101508.72;;;17.70;56.92
